Time;durP1;ratioP1;P1;durP2;ratioP2;P2;SDS_P1;SDS_P2;PMS_P1;PMS_P2;Temp;Humidity;BMP_temperature;BMP_pressure;BME280_temperature;BME280_humidity;BME280_pressure;Samples;Min_cycle;Max_cycle;Signal;HPM_P1;HPM_P2
2023/12/04 00:00:25;;;;;;;1.97;1.30;;;;;;;;;;5100961;27;20644;-55
2023/12/04 00:02:52;;;;;;;1.90;1.20;;;;;;;;;;5106956;28;20453;-53
2023/12/04 00:05:19;;;;;;;2.53;1.50;;;;;;;;;;5103084;28;20483;-53
2023/12/04 01:06:59;;;;;;;1.97;1.20;;;;;;;;;;5087496;27;20652;-53
2023/12/04 01:19:41;;;;;;;4.37;3.30;;;;;;;;;;5087677;27;20575;-53
2023/12/04 01:22:08;;;;;;;4.10;3.27;;;;;;;;;;5087575;28;20511;-53
2023/12/04 01:24:36;;;;;;;4.20;2.80;;;;;;;;;;5087648;28;20493;-54
2023/12/04 01:27:03;;;;;;;3.22;2.30;;;;;;;;;;5087685;28;20227;-55
2023/12/04 01:47:44;;;;;;;2.70;2.17;;;;;;;;;;5153258;27;20516;-53
2023/12/04 01:50:11;;;;;;;3.50;2.20;;;;;;;;;;5149662;27;20538;-50
2023/12/04 02:05:52;;;;;;;2.80;1.63;;;;;;;;;;5098605;27;20652;-52
2023/12/04 02:08:20;;;;;;;3.37;1.80;;;;;;;;;;5087148;28;20938;-53
2023/12/04 02:21:07;;;;;;;1.90;1.40;;;;;;;;;;5088093;27;20599;-52
2023/12/04 02:26:11;;;;;;;3.70;1.63;;;;;;;;;;5088071;27;21123;-52
2023/12/04 06:57:49;;;;;;;5.80;3.63;;;;;;;;;;5103997;27;20596;-52
2023/12/04 07:02:51;;;;;;;7.18;5.15;;;;;;;;;;5086862;27;20494;-51
2023/12/04 07:05:18;;;;;;;2.67;1.90;;;;;;;;;;5088054;28;20206;-51
2023/12/04 07:07:45;;;;;;;2.80;1.97;;;;;;;;;;5088065;28;20961;-49
2023/12/04 07:10:14;;;;;;;3.23;1.77;;;;;;;;;;5088353;28;20431;-53
2023/12/04 07:17:49;;;;;;;5.37;4.20;;;;;;;;;;5087715;27;20612;-52
2023/12/04 07:20:16;;;;;;;5.83;4.67;;;;;;;;;;5088370;28;21006;-52
2023/12/04 07:22:43;;;;;;;7.97;5.83;;;;;;;;;;5088167;28;20442;-53
2023/12/04 07:27:46;;;;;;;6.50;4.93;;;;;;;;;;5087760;27;20570;-49
2023/12/04 07:40:32;;;;;;;4.57;3.60;;;;;;;;;;5108575;27;20610;-52
2023/12/04 07:42:59;;;;;;;3.70;2.80;;;;;;;;;;5108541;28;20457;-52
2023/12/04 07:48:00;;;;;;;13.50;10.80;;;;;;;;;;5086642;27;20628;-54
2023/12/04 07:50:27;;;;;;;18.83;13.47;;;;;;;;;;5087517;28;20449;-53
2023/12/04 07:52:55;;;;;;;22.37;14.10;;;;;;;;;;5087396;28;20444;-54
2023/12/04 07:55:22;;;;;;;17.70;13.53;;;;;;;;;;5087723;28;20455;-53
2023/12/04 09:12:03;;;;;;;7.93;5.20;;;;;;;;;;5088038;27;20645;-56
2023/12/04 09:27:19;;;;;;;16.43;14.13;;;;;;;;;;5052282;27;20622;-53
2023/12/04 09:29:46;;;;;;;18.30;14.47;;;;;;;;;;5046496;28;20442;-56
2023/12/04 09:32:13;;;;;;;15.93;11.97;;;;;;;;;;5046816;28;20440;-54
2023/12/04 09:39:49;;;;;;;10.27;8.70;;;;;;;;;;5101838;27;20991;-53
2023/12/04 09:44:54;;;;;;;13.90;11.00;;;;;;;;;;5087454;27;20571;-53
2023/12/04 09:49:55;;;;;;;13.40;11.37;;;;;;;;;;5088077;27;20581;-53
2023/12/04 09:57:31;;;;;;;24.73;17.40;;;;;;;;;;5087729;27;21093;-53
2023/12/04 09:59:59;;;;;;;15.07;13.07;;;;;;;;;;5087549;28;20477;-54
2023/12/04 10:02:27;;;;;;;16.73;13.00;;;;;;;;;;5087582;28;20440;-53
2023/12/04 10:04:54;;;;;;;12.57;10.30;;;;;;;;;;5087499;28;20802;-54
2023/12/04 10:07:22;;;;;;;10.10;7.13;;;;;;;;;;5087437;28;20468;-54
2023/12/04 10:09:49;;;;;;;5.60;4.00;;;;;;;;;;5087499;28;20454;-53
2023/12/04 10:12:21;;;;;;;3.60;2.40;;;;;;;;;;5087670;28;20437;-53
2023/12/04 10:15:04;;;;;;;6.23;3.40;;;;;;;;;;5087345;28;20464;-51
2023/12/04 10:20:12;;;;;;;11.53;9.63;;;;;;;;;;5087431;27;20586;-53
2023/12/04 10:22:40;;;;;;;16.20;8.77;;;;;;;;;;5087708;28;20448;-54
2023/12/04 10:27:42;;;;;;;12.00;8.37;;;;;;;;;;5107620;27;20573;-53
2023/12/04 10:30:09;;;;;;;16.40;9.63;;;;;;;;;;5108120;28;20458;-53
2023/12/04 10:32:41;;;;;;;19.27;12.00;;;;;;;;;;5108231;28;20446;-53
2023/12/04 10:37:44;;;;;;;10.70;7.93;;;;;;;;;;5087707;27;20998;-54
2023/12/04 10:42:45;;;;;;;11.77;9.03;;;;;;;;;;5087756;27;20628;-54
2023/12/04 10:45:13;;;;;;;12.73;10.83;;;;;;;;;;5087775;28;20440;-53
2023/12/04 10:47:40;;;;;;;11.33;10.20;;;;;;;;;;5087433;28;20973;-54
2023/12/04 10:50:08;;;;;;;13.83;9.87;;;;;;;;;;5087361;28;20696;-53
2023/12/04 10:52:37;;;;;;;13.20;9.77;;;;;;;;;;5087902;28;20463;-53
2023/12/04 10:55:06;;;;;;;14.63;11.40;;;;;;;;;;5087409;28;20436;-53
2023/12/04 11:13:11;;;;;;;14.73;13.30;;;;;;;;;;5087470;27;20617;-53
2023/12/04 11:15:41;;;;;;;12.87;11.63;;;;;;;;;;5087442;28;20449;-53
2023/12/04 11:23:18;;;;;;;15.20;10.63;;;;;;;;;;5087758;27;21131;-51
2023/12/04 11:25:47;;;;;;;12.30;9.90;;;;;;;;;;5087472;28;20825;-51
2023/12/04 11:28:15;;;;;;;14.17;10.60;;;;;;;;;;5087323;28;20820;-51
2023/12/04 11:54:11;;;;;;;8.50;6.43;;;;;;;;;;5087576;27;20633;-51
2023/12/04 11:56:39;;;;;;;10.43;7.60;;;;;;;;;;5087546;28;20472;-53
2023/12/04 12:01:40;;;;;;;9.53;7.67;;;;;;;;;;5087833;27;20988;-53
2023/12/04 12:09:17;;;;;;;13.30;8.90;;;;;;;;;;5087628;27;21030;-51
2023/12/04 12:11:44;;;;;;;11.20;8.90;;;;;;;;;;5087550;28;20509;-51
2023/12/04 12:16:46;;;;;;;9.20;8.13;;;;;;;;;;5087935;27;20637;-51
2023/12/04 12:19:13;;;;;;;14.63;9.57;;;;;;;;;;5071682;28;20511;-51
2023/12/04 12:21:41;;;;;;;11.33;7.83;;;;;;;;;;5087846;28;20447;-54
2023/12/04 12:24:09;;;;;;;9.57;8.17;;;;;;;;;;5087580;28;20965;-51
2023/12/04 12:26:36;;;;;;;13.17;7.63;;;;;;;;;;5087868;28;20460;-53
2023/12/04 12:29:04;;;;;;;12.50;8.70;;;;;;;;;;5087612;28;20488;-54
2023/12/04 12:34:05;;;;;;;12.67;9.47;;;;;;;;;;5087834;27;21065;-53
2023/12/04 12:36:33;;;;;;;11.30;8.77;;;;;;;;;;5087651;28;20457;-54
2023/12/04 12:39:03;;;;;;;12.13;9.87;;;;;;;;;;5087356;28;20470;-53
2023/12/04 12:44:05;;;;;;;11.30;8.50;;;;;;;;;;5087839;27;20636;-51
2023/12/04 12:46:33;;;;;;;10.63;9.30;;;;;;;;;;5087722;28;20472;-50
2023/12/04 12:49:00;;;;;;;10.80;8.63;;;;;;;;;;5086979;28;20442;-52
2023/12/04 12:54:01;;;;;;;11.43;8.57;;;;;;;;;;5087672;27;21119;-50
2023/12/04 12:56:28;;;;;;;11.97;8.70;;;;;;;;;;5087853;28;20514;-51
2023/12/04 13:04:10;;;;;;;13.77;9.97;;;;;;;;;;5149184;27;21104;-51
2023/12/04 13:06:38;;;;;;;9.17;7.40;;;;;;;;;;5149820;27;20466;-54
2023/12/04 13:09:06;;;;;;;10.60;8.40;;;;;;;;;;5148637;27;20476;-54
2023/12/04 13:11:33;;;;;;;10.47;8.10;;;;;;;;;;5149196;27;20441;-54
2023/12/04 13:14:01;;;;;;;13.17;11.47;;;;;;;;;;5148705;27;20443;-54
2023/12/04 13:16:28;;;;;;;16.23;11.30;;;;;;;;;;5149081;27;20969;-53
2023/12/04 13:18:55;;;;;;;13.13;11.73;;;;;;;;;;5148917;27;20462;-53
2023/12/04 13:21:24;;;;;;;11.87;10.27;;;;;;;;;;5149051;27;20529;-53
2023/12/04 13:26:27;;;;;;;15.00;9.60;;;;;;;;;;5087574;27;20641;-51
2023/12/04 13:28:54;;;;;;;15.20;10.93;;;;;;;;;;5087473;28;20459;-51
2023/12/04 13:31:22;;;;;;;16.60;11.93;;;;;;;;;;5088023;28;20448;-51
2023/12/04 13:33:49;;;;;;;10.90;9.80;;;;;;;;;;5087754;28;20493;-51
2023/12/04 13:36:17;;;;;;;19.60;13.07;;;;;;;;;;5087575;28;20470;-51
2023/12/04 13:38:44;;;;;;;15.90;12.90;;;;;;;;;;5087222;28;20445;-51
2023/12/04 13:43:49;;;;;;;13.83;11.37;;;;;;;;;;5087228;28;20526;-50
2023/12/04 13:46:41;;;;;;;14.47;12.93;;;;;;;;;;5109593;22;20622;-53
2023/12/04 13:51:42;;;;;;;21.90;13.93;;;;;;;;;;5108867;27;20608;-55
2023/12/04 13:54:20;;;;;;;16.67;13.03;;;;;;;;;;5108654;28;20446;-52
2023/12/04 13:56:53;;;;;;;17.33;11.80;;;;;;;;;;5108754;28;20477;-54
2023/12/04 13:59:21;;;;;;;17.40;12.80;;;;;;;;;;5108241;28;20945;-54
2023/12/04 14:01:50;;;;;;;17.10;12.70;;;;;;;;;;5108627;28;20494;-57
2023/12/04 14:04:17;;;;;;;15.97;12.30;;;;;;;;;;5108358;28;20477;-56
2023/12/04 14:06:46;;;;;;;13.70;10.23;;;;;;;;;;5108243;28;20472;-53
2023/12/04 14:09:15;;;;;;;11.27;8.33;;;;;;;;;;5108024;28;20448;-53
2023/12/04 14:11:44;;;;;;;14.20;9.87;;;;;;;;;;5108403;28;20438;-54
2023/12/04 14:14:12;;;;;;;6.23;5.53;;;;;;;;;;5108216;28;20494;-53
2023/12/04 14:16:40;;;;;;;9.00;6.67;;;;;;;;;;5108162;28;20460;-54
2023/12/04 14:19:08;;;;;;;13.37;10.83;;;;;;;;;;5107676;28;20490;-56
2023/12/04 14:24:10;;;;;;;13.73;9.33;;;;;;;;;;5088486;27;21163;-52
2023/12/04 14:26:38;;;;;;;12.60;9.17;;;;;;;;;;5088564;28;20528;-53
2023/12/04 14:29:07;;;;;;;13.27;10.10;;;;;;;;;;5087484;28;20447;-53
2023/12/04 14:31:35;;;;;;;13.93;11.03;;;;;;;;;;5088432;28;20507;-54
2023/12/04 14:36:37;;;;;;;13.83;9.30;;;;;;;;;;5108518;27;20598;-52
2023/12/04 14:39:05;;;;;;;7.97;6.67;;;;;;;;;;5107970;28;20531;-54
2023/12/04 14:41:32;;;;;;;7.60;6.33;;;;;;;;;;5108843;28;20454;-53
2023/12/04 14:44:00;;;;;;;8.47;7.20;;;;;;;;;;5107978;28;20452;-52
2023/12/04 14:46:27;;;;;;;11.33;9.10;;;;;;;;;;5107695;28;20542;-52
2023/12/04 14:48:55;;;;;;;11.77;9.17;;;;;;;;;;5107031;28;20883;-53
2023/12/04 14:51:24;;;;;;;10.23;8.80;;;;;;;;;;5107962;28;20935;-53
2023/12/04 14:59:40;;;;;;;9.93;7.10;;;;;;;;;;5107997;27;20567;-52
2023/12/04 15:13:05;;;;;;;14.37;11.07;;;;;;;;;;5108317;27;20635;-52
2023/12/04 15:15:39;;;;;;;14.30;11.27;;;;;;;;;;5096756;28;20445;-55
2023/12/04 15:20:49;;;;;;;11.77;9.37;;;;;;;;;;5087307;27;20581;-53
2023/12/04 15:23:18;;;;;;;5.63;5.03;;;;;;;;;;5072693;28;20506;-53
2023/12/04 15:25:44;;;;;;;9.30;6.23;;;;;;;;;;5071373;28;21020;-53
2023/12/04 15:28:12;;;;;;;12.27;7.67;;;;;;;;;;5073064;28;20439;-53
2023/12/04 15:30:41;;;;;;;12.07;9.33;;;;;;;;;;5071716;28;20799;-54
2023/12/04 15:33:08;;;;;;;10.30;8.00;;;;;;;;;;5073098;28;20433;-52
2023/12/04 15:35:36;;;;;;;6.30;4.70;;;;;;;;;;5071214;28;20951;-54
2023/12/04 15:38:05;;;;;;;7.30;6.10;;;;;;;;;;5072658;28;20529;-53
2023/12/04 15:40:31;;;;;;;13.17;10.93;;;;;;;;;;5071308;28;20483;-52
2023/12/04 15:42:59;;;;;;;7.63;6.40;;;;;;;;;;5072783;28;20961;-53
2023/12/04 15:45:25;;;;;;;8.23;6.23;;;;;;;;;;5080354;28;20465;-52
2023/12/04 15:47:52;;;;;;;9.77;6.90;;;;;;;;;;5083654;28;20461;-53
2023/12/04 15:50:22;;;;;;;12.17;10.67;;;;;;;;;;5056595;28;20520;-58
2023/12/04 15:52:49;;;;;;;9.57;7.10;;;;;;;;;;5059503;28;21000;-52
2023/12/04 15:55:19;;;;;;;8.87;7.97;;;;;;;;;;5063812;28;20469;-54
2023/12/04 15:57:45;;;;;;;11.20;7.43;;;;;;;;;;5063523;28;21064;-57
2023/12/04 16:00:13;;;;;;;10.00;8.23;;;;;;;;;;5063036;28;20915;-53
2023/12/04 16:02:40;;;;;;;5.97;5.37;;;;;;;;;;5061939;28;20453;-53
2023/12/04 16:05:10;;;;;;;7.93;6.10;;;;;;;;;;5058393;28;20700;-53
2023/12/04 16:07:37;;;;;;;9.37;7.90;;;;;;;;;;5060697;28;20493;-54
2023/12/04 16:10:06;;;;;;;13.97;10.57;;;;;;;;;;5062057;28;20430;-54
2023/12/04 16:12:35;;;;;;;14.27;12.00;;;;;;;;;;5063006;28;20443;-53
2023/12/04 16:15:03;;;;;;;10.30;9.30;;;;;;;;;;5061545;28;20447;-53
2023/12/04 16:17:30;;;;;;;11.63;9.13;;;;;;;;;;5062580;28;20473;-54
2023/12/04 16:19:59;;;;;;;6.57;5.30;;;;;;;;;;5058062;28;21004;-52
2023/12/04 16:22:27;;;;;;;6.43;3.60;;;;;;;;;;5060924;28;20524;-52
2023/12/04 16:24:55;;;;;;;6.33;3.80;;;;;;;;;;5059254;28;20538;-52
2023/12/04 16:27:22;;;;;;;7.80;6.13;;;;;;;;;;5063028;28;20809;-53
2023/12/04 16:29:51;;;;;;;6.87;6.00;;;;;;;;;;5068845;28;20449;-52
2023/12/04 16:32:18;;;;;;;4.80;4.27;;;;;;;;;;5048576;28;20447;-52
2023/12/04 16:34:45;;;;;;;23.10;14.57;;;;;;;;;;5049064;28;20463;-53
2023/12/04 16:37:13;;;;;;;14.40;11.23;;;;;;;;;;5048234;28;20462;-53
2023/12/04 16:39:40;;;;;;;14.33;8.10;;;;;;;;;;5047856;28;20517;-55
2023/12/04 16:42:07;;;;;;;36.40;19.77;;;;;;;;;;5048418;28;20450;-54
2023/12/04 16:44:35;;;;;;;28.93;19.80;;;;;;;;;;5048978;28;20479;-53
2023/12/04 16:47:04;;;;;;;30.13;22.30;;;;;;;;;;5049643;28;20468;-53
2023/12/04 16:49:31;;;;;;;10.77;9.33;;;;;;;;;;5045834;28;20826;-52
2023/12/04 16:51:58;;;;;;;12.23;9.80;;;;;;;;;;5045601;28;20445;-54
2023/12/04 16:54:25;;;;;;;13.83;10.63;;;;;;;;;;5048895;28;20510;-52
2023/12/04 16:56:53;;;;;;;12.03;9.60;;;;;;;;;;5047778;28;20467;-54
2023/12/04 16:59:21;;;;;;;12.87;11.07;;;;;;;;;;5048418;28;20484;-52
2023/12/04 17:01:48;;;;;;;14.80;9.00;;;;;;;;;;5044789;28;20452;-53
2023/12/04 17:04:17;;;;;;;14.07;9.07;;;;;;;;;;5056728;28;20931;-54
2023/12/04 17:06:44;;;;;;;13.60;9.03;;;;;;;;;;5048334;28;21085;-56
2023/12/04 17:09:14;;;;;;;10.43;9.03;;;;;;;;;;5048392;28;20427;-55
2023/12/04 17:11:42;;;;;;;10.50;9.40;;;;;;;;;;5048418;28;20455;-54
2023/12/04 17:14:09;;;;;;;12.77;10.40;;;;;;;;;;5048112;28;20435;-55
2023/12/04 17:16:36;;;;;;;20.70;17.03;;;;;;;;;;5048818;28;20475;-52
2023/12/04 17:19:04;;;;;;;18.00;15.07;;;;;;;;;;5044728;28;20967;-54
2023/12/04 17:21:33;;;;;;;19.63;14.37;;;;;;;;;;5046235;28;20442;-52
2023/12/04 17:24:00;;;;;;;18.80;15.27;;;;;;;;;;5047953;28;20504;-55
2023/12/04 17:26:27;;;;;;;13.33;11.97;;;;;;;;;;5046147;28;20459;-52
2023/12/04 17:28:55;;;;;;;16.83;12.63;;;;;;;;;;5047517;28;20937;-53
2023/12/04 17:31:22;;;;;;;20.23;14.87;;;;;;;;;;5047598;28;20439;-55
2023/12/04 17:33:49;;;;;;;9.73;7.60;;;;;;;;;;5047859;28;20438;-52
2023/12/04 17:38:50;;;;;;;13.97;10.60;;;;;;;;;;5083532;27;20599;-54
2023/12/04 17:41:18;;;;;;;13.37;11.03;;;;;;;;;;5084844;28;20439;-55
2023/12/04 17:43:46;;;;;;;14.80;11.67;;;;;;;;;;5084633;28;20447;-53
2023/12/04 17:46:13;;;;;;;17.80;13.70;;;;;;;;;;5079479;28;20460;-53
2023/12/04 17:48:43;;;;;;;14.37;11.27;;;;;;;;;;5063745;28;20903;-53
2023/12/04 17:51:15;;;;;;;15.70;11.20;;;;;;;;;;5063243;28;20451;-52
2023/12/04 17:53:43;;;;;;;15.03;8.80;;;;;;;;;;5063487;28;20851;-55
2023/12/04 17:56:12;;;;;;;11.90;8.00;;;;;;;;;;5063345;28;20460;-53
2023/12/04 17:58:39;;;;;;;11.77;8.60;;;;;;;;;;5063295;28;20484;-54
2023/12/04 18:01:07;;;;;;;14.23;9.63;;;;;;;;;;5063577;28;20494;-53
2023/12/04 18:03:35;;;;;;;9.87;8.23;;;;;;;;;;5063991;28;20925;-54
2023/12/04 18:06:02;;;;;;;11.83;9.20;;;;;;;;;;5062958;28;20465;-54
2023/12/04 18:08:30;;;;;;;16.20;12.20;;;;;;;;;;5063258;28;20914;-54
2023/12/04 18:10:57;;;;;;;18.70;13.83;;;;;;;;;;5063512;28;20449;-53
2023/12/04 18:13:26;;;;;;;19.63;13.03;;;;;;;;;;5063751;28;20974;-54
2023/12/04 18:15:54;;;;;;;12.53;10.90;;;;;;;;;;5062395;28;20845;-53
2023/12/04 18:18:22;;;;;;;12.60;10.80;;;;;;;;;;5056226;28;20437;-54
2023/12/04 18:20:51;;;;;;;14.83;12.37;;;;;;;;;;5063371;28;20451;-53
2023/12/04 18:23:18;;;;;;;14.50;10.10;;;;;;;;;;5063167;28;20482;-55
2023/12/04 18:25:47;;;;;;;12.60;9.33;;;;;;;;;;5063379;28;20447;-54
2023/12/04 18:28:15;;;;;;;12.90;9.07;;;;;;;;;;5054829;28;20495;-54
2023/12/04 18:30:44;;;;;;;9.93;8.37;;;;;;;;;;5063397;28;20452;-53
2023/12/04 18:33:12;;;;;;;9.70;8.00;;;;;;;;;;5062552;28;20817;-54
2023/12/04 18:35:42;;;;;;;7.37;6.67;;;;;;;;;;5063513;28;20475;-53
2023/12/04 18:38:13;;;;;;;9.17;7.37;;;;;;;;;;5062575;28;20456;-53
2023/12/04 18:40:40;;;;;;;8.87;7.80;;;;;;;;;;5062938;28;20444;-55
2023/12/04 18:43:08;;;;;;;7.97;6.10;;;;;;;;;;5062261;28;20457;-53
2023/12/04 18:45:35;;;;;;;9.20;8.30;;;;;;;;;;5062746;28;20439;-55
2023/12/04 18:48:06;;;;;;;13.67;10.40;;;;;;;;;;5060636;28;20480;-55
2023/12/04 18:50:35;;;;;;;14.87;11.40;;;;;;;;;;5049319;28;20455;-54
2023/12/04 18:53:03;;;;;;;13.90;11.83;;;;;;;;;;5045990;28;20459;-53
2023/12/04 18:55:30;;;;;;;9.33;7.73;;;;;;;;;;5049552;28;20447;-55
2023/12/04 18:57:58;;;;;;;6.73;5.60;;;;;;;;;;5049041;28;20491;-55
2023/12/04 19:00:25;;;;;;;5.20;4.20;;;;;;;;;;5049227;28;20560;-55
2023/12/04 19:02:53;;;;;;;13.50;10.03;;;;;;;;;;5049429;28;20455;-55
2023/12/04 19:05:22;;;;;;;12.77;11.03;;;;;;;;;;5049585;28;20853;-56
2023/12/04 19:07:50;;;;;;;13.20;10.67;;;;;;;;;;5047282;28;20571;-55
2023/12/04 19:10:17;;;;;;;13.13;10.70;;;;;;;;;;5048187;28;20927;-54
2023/12/04 19:12:45;;;;;;;10.83;9.57;;;;;;;;;;5045946;28;20857;-56
2023/12/04 19:15:12;;;;;;;11.30;9.47;;;;;;;;;;5048917;28;20469;-55
2023/12/04 19:17:39;;;;;;;16.43;10.87;;;;;;;;;;5048315;28;21017;-57
2023/12/04 19:20:09;;;;;;;12.63;9.90;;;;;;;;;;5048313;28;20790;-55
2023/12/04 19:22:38;;;;;;;11.30;8.10;;;;;;;;;;5048319;28;20472;-56
2023/12/04 19:25:06;;;;;;;8.03;7.17;;;;;;;;;;5048403;28;20451;-52
2023/12/04 19:27:33;;;;;;;9.17;6.10;;;;;;;;;;5048389;28;20477;-55
2023/12/04 19:30:01;;;;;;;4.80;4.20;;;;;;;;;;5048234;28;20480;-55
2023/12/04 19:32:28;;;;;;;5.90;4.63;;;;;;;;;;5048614;28;20440;-52
2023/12/04 19:34:55;;;;;;;6.60;4.47;;;;;;;;;;5048811;28;20509;-57
2023/12/04 19:37:23;;;;;;;10.43;8.33;;;;;;;;;;5048738;28;20469;-55
2023/12/04 19:39:51;;;;;;;12.03;8.50;;;;;;;;;;5052485;28;20532;-55
2023/12/04 19:42:19;;;;;;;10.83;7.17;;;;;;;;;;5060771;28;20448;-55
2023/12/04 19:44:46;;;;;;;10.10;6.10;;;;;;;;;;5057110;28;20438;-55
2023/12/04 19:47:13;;;;;;;5.53;5.03;;;;;;;;;;5091565;22;20482;-53
2023/12/04 19:49:43;;;;;;;5.67;4.07;;;;;;;;;;5031164;28;20488;-54
2023/12/04 19:52:10;;;;;;;6.13;4.53;;;;;;;;;;5031686;28;20438;-54
2023/12/04 19:54:37;;;;;;;4.43;3.50;;;;;;;;;;5031632;28;20510;-54
2023/12/04 19:57:06;;;;;;;9.67;8.50;;;;;;;;;;5031340;28;20503;-54
2023/12/04 19:59:33;;;;;;;9.73;6.90;;;;;;;;;;5030941;28;20442;-54
2023/12/04 20:02:02;;;;;;;9.73;7.17;;;;;;;;;;5030544;28;20441;-54
2023/12/04 20:04:29;;;;;;;8.07;7.03;;;;;;;;;;5031196;28;20951;-54
2023/12/04 20:06:56;;;;;;;12.07;7.90;;;;;;;;;;5030679;28;20465;-54
2023/12/04 20:11:57;;;;;;;9.13;7.33;;;;;;;;;;5096122;27;20562;-54
2023/12/04 20:14:25;;;;;;;16.93;13.07;;;;;;;;;;5077332;28;20439;-54
2023/12/04 20:16:52;;;;;;;18.70;12.30;;;;;;;;;;5075241;28;20526;-54
2023/12/04 20:21:53;;;;;;;14.33;12.73;;;;;;;;;;5139874;27;20661;-52
2023/12/04 20:24:20;;;;;;;17.87;13.60;;;;;;;;;;5129703;27;20570;-52
2023/12/04 20:26:49;;;;;;;12.20;10.90;;;;;;;;;;5121958;27;20477;-52
2023/12/04 20:29:16;;;;;;;11.87;10.47;;;;;;;;;;5111263;28;20433;-54
2023/12/04 20:31:43;;;;;;;18.70;14.23;;;;;;;;;;5110785;28;20431;-54
2023/12/04 20:34:11;;;;;;;16.80;14.10;;;;;;;;;;5112305;27;20432;-52
2023/12/04 20:36:39;;;;;;;15.00;12.17;;;;;;;;;;5110907;27;20459;-53
2023/12/04 20:39:08;;;;;;;21.20;16.30;;;;;;;;;;5112232;28;20432;-53
2023/12/04 20:41:35;;;;;;;17.50;13.07;;;;;;;;;;5110194;28;20474;-51
2023/12/04 20:44:05;;;;;;;15.97;11.17;;;;;;;;;;5111790;28;20449;-53
2023/12/04 20:46:32;;;;;;;12.03;10.80;;;;;;;;;;5109822;27;20462;-51
2023/12/04 20:49:03;;;;;;;17.27;12.80;;;;;;;;;;5111568;28;20530;-55
2023/12/04 20:51:31;;;;;;;16.13;12.80;;;;;;;;;;5109126;28;20439;-52
2023/12/04 20:53:58;;;;;;;13.60;10.13;;;;;;;;;;5111831;28;20438;-52
2023/12/04 20:56:27;;;;;;;15.87;10.40;;;;;;;;;;5113362;27;20979;-52
2023/12/04 20:58:54;;;;;;;9.30;8.30;;;;;;;;;;5111076;27;21001;-52
2023/12/04 21:01:22;;;;;;;11.30;7.70;;;;;;;;;;5120662;27;20483;-52
2023/12/04 21:03:49;;;;;;;8.63;7.33;;;;;;;;;;5127142;28;20722;-52
2023/12/04 21:06:15;;;;;;;17.33;12.10;;;;;;;;;;5127460;27;20496;-52
2023/12/04 21:08:43;;;;;;;16.73;12.93;;;;;;;;;;5112980;28;20438;-52
2023/12/04 21:11:10;;;;;;;17.13;12.60;;;;;;;;;;5113300;28;20434;-52
2023/12/04 21:13:39;;;;;;;15.70;13.07;;;;;;;;;;5113660;28;20472;-53
2023/12/04 21:16:07;;;;;;;17.43;13.63;;;;;;;;;;5112811;27;20466;-52
2023/12/04 21:18:34;;;;;;;16.53;12.03;;;;;;;;;;5110698;28;20434;-54
2023/12/04 21:21:01;;;;;;;11.07;9.77;;;;;;;;;;5110555;28;20493;-52
2023/12/04 21:23:28;;;;;;;11.83;10.20;;;;;;;;;;5105952;28;20442;-52
2023/12/04 21:25:56;;;;;;;14.07;11.23;;;;;;;;;;5110637;27;20488;-52
2023/12/04 21:28:24;;;;;;;12.90;10.10;;;;;;;;;;5110590;28;20554;-52
2023/12/04 21:30:53;;;;;;;11.43;9.40;;;;;;;;;;5110614;28;20868;-52
2023/12/04 21:33:22;;;;;;;12.13;10.63;;;;;;;;;;5096984;28;20801;-52
2023/12/04 21:35:51;;;;;;;11.77;9.93;;;;;;;;;;5094002;28;20444;-52
2023/12/04 21:38:18;;;;;;;12.73;10.57;;;;;;;;;;5098239;28;20461;-52
2023/12/04 21:40:45;;;;;;;11.70;9.50;;;;;;;;;;5096142;28;20478;-53
2023/12/04 21:43:13;;;;;;;14.10;9.13;;;;;;;;;;5098863;28;20529;-52
2023/12/04 21:45:40;;;;;;;10.50;8.97;;;;;;;;;;5096844;28;20455;-52
2023/12/04 21:48:09;;;;;;;9.73;8.70;;;;;;;;;;5098696;28;20465;-52
2023/12/04 21:50:36;;;;;;;11.13;7.70;;;;;;;;;;5096858;28;20442;-52
2023/12/04 21:53:04;;;;;;;8.27;6.40;;;;;;;;;;5098919;28;20445;-52
2023/12/04 21:55:31;;;;;;;7.70;6.90;;;;;;;;;;5094481;28;20437;-52
2023/12/04 21:57:58;;;;;;;7.40;6.20;;;;;;;;;;5097833;28;20515;-52
2023/12/04 22:00:28;;;;;;;6.00;5.40;;;;;;;;;;5096948;28;20476;-52
2023/12/04 22:02:55;;;;;;;9.43;8.33;;;;;;;;;;5097716;28;20447;-52
2023/12/04 22:05:24;;;;;;;7.37;6.57;;;;;;;;;;5097863;28;20490;-52
2023/12/04 22:07:51;;;;;;;7.30;6.37;;;;;;;;;;5096392;28;20470;-52
2023/12/04 22:10:18;;;;;;;7.43;6.63;;;;;;;;;;5098201;28;20437;-52
2023/12/04 22:12:46;;;;;;;11.60;7.57;;;;;;;;;;5096629;28;20846;-52
2023/12/04 22:15:13;;;;;;;7.13;5.73;;;;;;;;;;5098339;28;20439;-52
2023/12/04 22:17:41;;;;;;;7.57;6.87;;;;;;;;;;5096169;28;20458;-53
2023/12/04 22:20:09;;;;;;;12.67;7.30;;;;;;;;;;5098416;28;20441;-53
2023/12/04 22:22:37;;;;;;;8.13;5.60;;;;;;;;;;5096417;28;20443;-52
2023/12/04 22:25:05;;;;;;;10.40;7.80;;;;;;;;;;5098546;28;20943;-53
2023/12/04 22:27:32;;;;;;;8.83;7.80;;;;;;;;;;5093838;28;20520;-52
2023/12/04 22:30:00;;;;;;;7.13;6.40;;;;;;;;;;5097249;28;20439;-52
2023/12/04 22:32:28;;;;;;;8.93;6.80;;;;;;;;;;5099291;28;20803;-53
2023/12/04 22:34:55;;;;;;;10.03;6.97;;;;;;;;;;5111016;28;20870;-52
2023/12/04 22:37:22;;;;;;;9.60;7.67;;;;;;;;;;5107989;28;20464;-51
2023/12/04 22:42:24;;;;;;;7.63;6.83;;;;;;;;;;5087945;27;20635;-52
2023/12/04 22:44:52;;;;;;;8.90;5.93;;;;;;;;;;5087388;28;20451;-53
2023/12/04 22:47:19;;;;;;;11.53;8.27;;;;;;;;;;5087172;28;20560;-51
2023/12/04 22:49:46;;;;;;;8.40;7.60;;;;;;;;;;5086496;28;20449;-52
2023/12/04 22:52:14;;;;;;;9.07;6.50;;;;;;;;;;5087452;28;20809;-51
2023/12/04 22:54:41;;;;;;;8.30;6.93;;;;;;;;;;5087674;28;20551;-52
2023/12/04 22:57:08;;;;;;;8.60;6.60;;;;;;;;;;5087305;28;20832;-52
2023/12/04 23:02:11;;;;;;;7.83;5.97;;;;;;;;;;5107964;27;21128;-54
2023/12/04 23:04:39;;;;;;;7.00;6.30;;;;;;;;;;5108111;28;20872;-55
2023/12/04 23:07:07;;;;;;;7.23;6.27;;;;;;;;;;5107629;28;20473;-54
2023/12/04 23:09:34;;;;;;;9.10;8.20;;;;;;;;;;5107581;28;20445;-54
2023/12/04 23:12:03;;;;;;;11.13;9.90;;;;;;;;;;5107410;28;20988;-54
2023/12/04 23:17:04;;;;;;;11.30;10.20;;;;;;;;;;5087312;27;20640;-51
2023/12/04 23:19:31;;;;;;;9.93;8.90;;;;;;;;;;5087242;28;20500;-53
2023/12/04 23:21:58;;;;;;;10.13;8.50;;;;;;;;;;5079076;28;20498;-52
2023/12/04 23:24:26;;;;;;;12.77;9.37;;;;;;;;;;5087523;28;20447;-51
2023/12/04 23:26:53;;;;;;;12.30;9.43;;;;;;;;;;5086974;28;20492;-51
2023/12/04 23:29:20;;;;;;;12.10;8.57;;;;;;;;;;5086471;28;20447;-51
2023/12/04 23:31:48;;;;;;;12.63;8.93;;;;;;;;;;5086234;28;20445;-52
2023/12/04 23:34:16;;;;;;;9.70;8.67;;;;;;;;;;5070874;28;20476;-51
2023/12/04 23:36:44;;;;;;;9.40;7.73;;;;;;;;;;5086231;28;20469;-53
2023/12/04 23:39:11;;;;;;;12.30;9.90;;;;;;;;;;5086482;28;20871;-52
2023/12/04 23:41:38;;;;;;;14.10;10.63;;;;;;;;;;5086230;28;20453;-51
2023/12/04 23:44:06;;;;;;;11.03;9.63;;;;;;;;;;5086100;28;21169;-51
2023/12/04 23:46:33;;;;;;;10.03;8.80;;;;;;;;;;5086443;28;20485;-52
2023/12/04 23:49:00;;;;;;;9.67;7.37;;;;;;;;;;5085928;28;20454;-53
2023/12/04 23:51:29;;;;;;;6.40;5.37;;;;;;;;;;5086777;28;20451;-52
2023/12/04 23:53:56;;;;;;;8.60;6.77;;;;;;;;;;5086487;28;20452;-52
2023/12/04 23:56:24;;;;;;;16.40;13.20;;;;;;;;;;5086573;28;20513;-51
2023/12/04 23:58:51;;;;;;;12.33;10.20;;;;;;;;;;5086377;28;20548;-51
